Ute, Iowa
Current Conditions -  °F | °C
As of 6:55 PM on Monday 24 Nov 2014 (Local Time) from KDNS Reporting Station
Overcast Overcast  
Wind Chill: 12°   Ceiling: 2800
Heat Index: 27°   Visibility: 10mi
Dew Point: 16°   Wind: 23mph
Humidity: 64%   Direction: 320°NW
Pressure: 29.91"   Gusts: 30mph
Location:  42.05°N, 95.71°W
Report Text: KDNS 250055Z AUTO 32020G26KT 10SM OVC028 M03/M09 A2991 RMK AO2
Loading
Personal Weather Stations






























Interactive Weather Map New forecast layout! Learn more

10-Day Weather Forecast

Advertisements
Track Severe Weather on mobile